The Little Minch, United Kingdom
Current Conditions -  °F | °C
As of 8:20 PM on Saturday 25 Oct 2014 (Local Time) from EGPL Reporting Station
Haze Haze  
Wind Chill: 50°   Ceiling: Unl
Heat Index: 50°   Visibility: 3mi
Dew Point: 46°   Wind: 35mph
Humidity: 87%   Direction: 230°SW
Pressure: 29.38"   Gusts: 48mph
Location:  57.5°N, 7°W
Report Text: EGPL 251920Z AUTO 23030G42KT 4900 HZ FEW024/// SCT034/// 10/08 Q0995
Loading
Personal Weather Stations






























Interactive Weather Map
Tropical Storm Tracking
New forecast layout! Learn more

10-Day Weather Forecast

Advertisements
Track Severe Weather on mobile